createdAt,value
2022-08-18T00:02:36.511Z,63.41
2022-08-18T00:12:13.347Z,63.65
2022-08-18T00:21:50.173Z,64.23
2022-08-18T00:31:27.117Z,63.91
2022-08-18T00:41:04.058Z,64.83
2022-08-18T00:50:40.807Z,65.36
2022-08-18T01:00:18.162Z,65.15
2022-08-18T01:09:55.118Z,65.73
2022-08-18T01:19:32.321Z,66.1
2022-08-18T01:29:09.407Z,66.55
2022-08-18T01:38:46.856Z,66.83
2022-08-18T01:48:23.897Z,67.02
2022-08-18T01:58:00.745Z,66.78
2022-08-18T02:07:37.801Z,66.92
2022-08-18T02:26:52.291Z,66.75
2022-08-18T02:36:30.047Z,65.68
2022-08-18T02:46:07.506Z,65.54
2022-08-18T02:55:44.878Z,65.94
2022-08-18T03:05:22.010Z,66.67
2022-08-18T03:14:59.177Z,66.25
2022-08-18T03:24:36.252Z,67.85
2022-08-18T03:34:13.721Z,67.67
2022-08-18T03:43:51.809Z,66.98
2022-08-18T03:53:28.132Z,66.97
2022-08-18T04:03:05.828Z,67.38
2022-08-18T04:22:20.110Z,66.31
2022-08-18T04:31:57.609Z,66.6
2022-08-18T04:41:35.345Z,66.78
2022-08-18T04:51:13.211Z,66.16
2022-08-18T05:00:51.396Z,64.26
2022-08-18T05:10:29.439Z,60.9
2022-08-18T05:20:07.821Z,58.95
2022-08-18T05:29:46.346Z,61.62
2022-08-18T05:39:23.668Z,61.61
2022-08-18T05:49:01.216Z,61.61
2022-08-18T05:58:38.916Z,60.63
2022-08-18T06:08:16.591Z,59.75
2022-08-18T06:17:54.200Z,59.58
2022-08-18T06:27:31.706Z,59.54
2022-08-18T06:37:09.507Z,58.77
2022-08-18T06:56:25.725Z,58.5
2022-08-18T07:06:02.094Z,59.23
2022-08-18T07:15:40.087Z,60.36
2022-08-18T07:25:18.248Z,60.16
2022-08-18T07:34:57.201Z,56.79
2022-08-18T07:44:35.457Z,56.52
2022-08-18T07:54:31.463Z,55.79
2022-08-18T08:03:51.655Z,59
2022-08-18T08:13:51.640Z,64.61
2022-08-18T08:23:03.279Z,64.08
2022-08-18T08:32:39.644Z,69.32
2022-08-18T08:42:29.878Z,69.84
2022-08-18T08:51:52.872Z,69.46
2022-08-18T09:01:30.713Z,68.96
2022-08-18T09:11:07.918Z,71.98
2022-08-18T09:20:49.148Z,68.44
2022-08-18T09:30:23.591Z,67.75
2022-08-18T09:40:11.183Z,69.94
2022-08-18T09:49:37.975Z,73.8
2022-08-18T09:59:14.189Z,77.02
2022-08-18T10:08:50.922Z,78.79
2022-08-18T10:18:27.917Z,80.86
2022-08-18T10:28:06.355Z,79.65
2022-08-18T10:37:43.815Z,77.87
2022-08-18T10:47:24.766Z,78.91
2022-08-18T10:57:00.503Z,77.52
2022-08-18T11:06:37.599Z,76.22
2022-08-18T11:16:15.510Z,76.3
2022-08-18T11:25:53.139Z,75.14
2022-08-18T11:35:31.611Z,72.45
2022-08-18T11:45:08.237Z,72.93
2022-08-18T11:54:50.392Z,74.91
2022-08-18T12:04:23.885Z,71.6
2022-08-18T12:14:00.388Z,74.48
2022-08-18T12:33:14.039Z,75.43
2022-08-18T12:42:51.493Z,77.38
2022-08-18T13:02:08.136Z,82.27
2022-08-18T13:11:44.389Z,80.45
2022-08-18T13:50:31.348Z,67.82
2022-08-18T14:00:12.258Z,62.81
2022-08-18T14:09:55.807Z,61.65
2022-08-18T14:19:29.863Z,60.27
2022-08-18T14:29:07.966Z,58.44
2022-08-18T14:38:51.579Z,58.16
2022-08-18T14:48:38.311Z,58.03
2022-08-18T14:58:18.723Z,55.71
2022-08-18T15:08:02.746Z,52.93
2022-08-18T15:17:38.048Z,56.5
2022-08-18T15:27:10.197Z,52.59
2022-08-18T15:36:39.512Z,55.91
2022-08-18T15:46:17.119Z,53.24
2022-08-18T15:55:57.544Z,51.42
2022-08-18T16:05:32.852Z,53.44
2022-08-18T16:15:07.532Z,55.84
2022-08-18T16:24:42.611Z,56.57
2022-08-18T16:34:18.870Z,58.42
2022-08-18T16:43:56.042Z,59.9
2022-08-18T17:03:08.998Z,60.6
2022-08-18T17:12:45.436Z,61.59
2022-08-18T17:22:22.511Z,62.48
2022-08-18T17:31:59.323Z,61.72
2022-08-18T17:41:36.063Z,61.79
2022-08-18T17:51:13.048Z,63.61
2022-08-18T18:00:49.250Z,64.39
2022-08-18T18:10:25.970Z,65.79
2022-08-18T18:20:03.302Z,66.49
2022-08-18T18:29:40.216Z,67.26
2022-08-18T18:39:17.260Z,68.19
2022-08-18T18:48:54.261Z,68.69
2022-08-18T18:58:31.355Z,69.77
2022-08-18T19:08:08.856Z,70.78
2022-08-18T19:17:46.229Z,71.07
2022-08-18T19:27:23.822Z,71.5
2022-08-18T19:37:00.103Z,73.04
2022-08-18T19:46:37.012Z,72.46
2022-08-18T20:15:29.370Z,74.58
2022-08-18T20:25:06.422Z,78.5
2022-08-18T20:34:43.156Z,78.76
2022-08-18T20:44:21.301Z,81.53
2022-08-18T20:53:57.214Z,83.54
2022-08-18T21:03:34.521Z,83.91
2022-08-18T21:13:11.549Z,84.5
2022-08-18T21:22:48.894Z,84.34
2022-08-18T21:32:25.332Z,81.7
2022-08-18T21:42:02.678Z,82.28
2022-08-18T21:51:39.432Z,81.87
2022-08-18T22:01:16.869Z,83.52
2022-08-18T22:10:54.083Z,83.03
2022-08-18T22:20:31.404Z,80.7
2022-08-18T22:30:08.732Z,79.28
2022-08-18T22:39:45.958Z,80.17
2022-08-18T22:59:00.191Z,85.61
2022-08-18T23:08:55.314Z,88.1
2022-08-18T23:18:14.190Z,89.9
2022-08-18T23:27:51.143Z,90.6
2022-08-18T23:37:28.136Z,91.3
2022-08-18T23:47:05.276Z,91.76
2022-08-18T23:56:42.895Z,92.46
